Time;durP1;ratioP1;P1;durP2;ratioP2;P2;SDS_P1;SDS_P2;PMS_P1;PMS_P2;Temp;Humidity;BMP_temperature;BMP_pressure;BME280_temperature;BME280_humidity;BME280_pressure;Samples;Min_cycle;Max_cycle;Signal;HPM_P1;HPM_P2
2022/06/22 00:00:11;;;;;;;1.13;0.97;;;;;;;;;;5042318;28;20463;-78
2022/06/22 00:02:40;;;;;;;0.70;0.70;;;;;;;;;;5069511;28;20787;-77
2022/06/22 00:05:13;;;;;;;0.70;0.60;;;;;;;;;;5053933;28;20484;-78
2022/06/22 00:07:46;;;;;;;0.70;0.60;;;;;;;;;;5068068;28;20490;-79
2022/06/22 00:10:16;;;;;;;0.80;0.70;;;;;;;;;;5055748;28;20462;-77
2022/06/22 00:12:46;;;;;;;0.70;0.60;;;;;;;;;;5072831;28;20426;-77
2022/06/22 00:15:26;;;;;;;0.70;0.60;;;;;;;;;;5056624;28;20447;-77
2022/06/22 00:17:53;;;;;;;0.70;0.70;;;;;;;;;;5063462;28;20444;-78
2022/06/22 00:20:22;;;;;;;0.70;0.60;;;;;;;;;;5052439;28;20443;-77
2022/06/22 00:22:52;;;;;;;0.70;0.60;;;;;;;;;;5056797;28;20909;-78
2022/06/22 00:25:24;;;;;;;0.70;0.60;;;;;;;;;;5064113;28;20423;-78
2022/06/22 00:27:51;;;;;;;0.70;0.60;;;;;;;;;;5037419;28;20455;-78
2022/06/22 00:30:21;;;;;;;0.70;0.70;;;;;;;;;;5040585;28;20494;-77
2022/06/22 00:32:57;;;;;;;0.70;0.60;;;;;;;;;;5036367;28;20968;-77
2022/06/22 00:39:17;;;;;;;0.70;0.60;;;;;;;;;;5064978;28;20403;-77
2022/06/22 07:01:34;;;;;;;0.77;0.70;;;;;;;;;;5058920;28;20431;-79
2022/06/22 07:04:03;;;;;;;0.70;0.60;;;;;;;;;;5054483;28;20454;-79
2022/06/22 07:06:30;;;;;;;0.70;0.70;;;;;;;;;;5061290;28;20469;-79
2022/06/22 07:08:59;;;;;;;0.80;0.70;;;;;;;;;;5075020;28;20428;-80
2022/06/22 07:11:33;;;;;;;0.70;0.60;;;;;;;;;;5053657;28;20445;-79
2022/06/22 07:14:06;;;;;;;0.77;0.77;;;;;;;;;;5068567;28;20424;-79
2022/06/22 07:16:35;;;;;;;0.70;0.60;;;;;;;;;;5037261;28;20912;-79
2022/06/22 07:19:04;;;;;;;0.70;0.70;;;;;;;;;;5053902;28;20429;-81
2022/06/22 07:21:34;;;;;;;0.80;0.70;;;;;;;;;;5054621;28;20472;-79
2022/06/22 07:24:04;;;;;;;0.70;0.60;;;;;;;;;;5037151;28;20476;-79
2022/06/22 07:26:36;;;;;;;1.00;0.90;;;;;;;;;;5051643;28;20456;-80
2022/06/22 07:29:07;;;;;;;0.70;0.70;;;;;;;;;;5053578;28;20487;-80
2022/06/22 07:31:38;;;;;;;0.70;0.70;;;;;;;;;;5060356;28;20435;-79
2022/06/22 07:34:09;;;;;;;0.70;0.70;;;;;;;;;;5059506;28;20451;-79
2022/06/22 07:36:41;;;;;;;0.70;0.60;;;;;;;;;;5041346;28;20468;-81
2022/06/22 07:39:15;;;;;;;0.77;0.70;;;;;;;;;;5037881;28;20559;-80
2022/06/22 07:41:52;;;;;;;0.73;0.70;;;;;;;;;;5052616;28;20443;-80
2022/06/22 07:44:20;;;;;;;0.70;0.60;;;;;;;;;;5037182;28;21090;-79
2022/06/22 07:46:50;;;;;;;0.80;0.70;;;;;;;;;;5070836;28;21007;-79
2022/06/22 07:49:19;;;;;;;0.70;0.60;;;;;;;;;;5052656;28;20440;-79
2022/06/22 07:51:48;;;;;;;0.83;0.83;;;;;;;;;;5037144;28;20559;-81
2022/06/22 07:54:20;;;;;;;3.10;2.90;;;;;;;;;;5053266;28;20440;-78
2022/06/22 07:56:53;;;;;;;1.00;0.90;;;;;;;;;;5053391;28;20497;-79
2022/06/22 07:59:23;;;;;;;0.70;0.60;;;;;;;;;;5056068;28;20427;-80
2022/06/22 08:01:53;;;;;;;0.80;0.70;;;;;;;;;;5069542;28;20833;-81
2022/06/22 08:04:25;;;;;;;0.80;0.70;;;;;;;;;;5054687;28;20424;-80
2022/06/22 08:06:55;;;;;;;0.80;0.73;;;;;;;;;;5060681;28;21009;-81
2022/06/22 08:09:23;;;;;;;0.80;0.70;;;;;;;;;;5053024;28;20436;-81
2022/06/22 08:11:51;;;;;;;0.70;0.60;;;;;;;;;;5036355;28;20432;-80
2022/06/22 08:14:21;;;;;;;0.80;0.70;;;;;;;;;;5043019;28;20494;-79
2022/06/22 08:16:49;;;;;;;0.93;0.93;;;;;;;;;;5061890;28;20463;-79
2022/06/22 08:19:17;;;;;;;0.80;0.70;;;;;;;;;;5062403;28;20863;-82
2022/06/22 08:21:48;;;;;;;0.70;0.60;;;;;;;;;;5063964;28;20456;-81
2022/06/22 08:24:15;;;;;;;0.80;0.70;;;;;;;;;;5052187;28;20449;-82
2022/06/22 08:26:45;;;;;;;0.80;0.80;;;;;;;;;;5058012;28;20443;-82
2022/06/22 08:29:14;;;;;;;0.77;0.70;;;;;;;;;;5048989;28;20963;-82
2022/06/22 08:31:46;;;;;;;0.80;0.70;;;;;;;;;;5072261;28;20471;-81
2022/06/22 08:34:36;;;;;;;0.80;0.70;;;;;;;;;;5072365;28;20443;-80
2022/06/22 08:37:06;;;;;;;1.10;1.00;;;;;;;;;;5068891;28;20445;-79
2022/06/22 08:39:37;;;;;;;0.80;0.70;;;;;;;;;;5060536;28;20531;-82
2022/06/22 08:42:11;;;;;;;0.80;0.70;;;;;;;;;;5064188;28;20447;-82
2022/06/22 08:44:47;;;;;;;0.70;0.60;;;;;;;;;;5055338;28;20887;-81
2022/06/22 08:47:25;;;;;;;0.70;0.67;;;;;;;;;;5070338;28;20898;-81
2022/06/22 08:50:06;;;;;;;0.80;0.60;;;;;;;;;;5066174;28;20466;-83
2022/06/22 08:52:43;;;;;;;1.17;1.07;;;;;;;;;;5072611;28;20439;-82
2022/06/22 08:55:49;;;;;;;0.80;0.70;;;;;;;;;;5073468;28;20481;-83
2022/06/22 08:58:26;;;;;;;0.90;0.90;;;;;;;;;;5050260;28;20448;-82
2022/06/22 09:00:59;;;;;;;0.70;0.60;;;;;;;;;;5071292;28;20796;-83
2022/06/22 09:03:52;;;;;;;0.70;0.60;;;;;;;;;;5070219;28;20484;-82
2022/06/22 09:06:38;;;;;;;0.70;0.60;;;;;;;;;;5034342;28;20987;-81
2022/06/22 09:09:20;;;;;;;0.70;0.60;;;;;;;;;;5069780;28;20423;-82
2022/06/22 09:11:54;;;;;;;0.70;0.60;;;;;;;;;;5069587;28;20478;-83
2022/06/22 09:14:49;;;;;;;0.70;0.60;;;;;;;;;;5054859;28;20431;-83
2022/06/22 09:17:29;;;;;;;0.80;0.70;;;;;;;;;;5066012;28;20939;-82
2022/06/22 09:20:01;;;;;;;0.73;0.63;;;;;;;;;;5035834;28;20432;-83
2022/06/22 09:22:37;;;;;;;0.73;0.67;;;;;;;;;;5035046;28;20882;-81
2022/06/22 09:25:08;;;;;;;0.70;0.60;;;;;;;;;;5051868;28;20505;-81
2022/06/22 09:27:41;;;;;;;0.70;0.60;;;;;;;;;;5036689;28;20448;-83
2022/06/22 09:30:12;;;;;;;0.70;0.60;;;;;;;;;;5052853;28;20521;-81
2022/06/22 09:33:06;;;;;;;0.70;0.50;;;;;;;;;;5052099;28;20416;-82
2022/06/22 09:35:49;;;;;;;0.70;0.60;;;;;;;;;;5017013;28;20956;-83
2022/06/22 09:38:36;;;;;;;0.70;0.60;;;;;;;;;;5051487;28;20483;-82
2022/06/22 09:41:05;;;;;;;0.70;0.60;;;;;;;;;;5064926;28;20446;-84
2022/06/22 09:43:48;;;;;;;0.80;0.60;;;;;;;;;;5057792;28;20432;-82
2022/06/22 09:46:23;;;;;;;0.70;0.60;;;;;;;;;;5039383;28;20428;-86
2022/06/22 09:49:07;;;;;;;0.70;0.60;;;;;;;;;;5072399;28;20852;-87
2022/06/22 09:51:41;;;;;;;0.70;0.60;;;;;;;;;;5058881;28;20557;-84
2022/06/22 09:57:17;;;;;;;0.70;0.63;;;;;;;;;;5069055;28;20941;-83
2022/06/22 10:00:00;;;;;;;0.70;0.50;;;;;;;;;;5039181;28;20436;-84
2022/06/22 10:02:49;;;;;;;0.80;0.70;;;;;;;;;;5056567;28;20450;-84
2022/06/22 10:05:37;;;;;;;0.80;0.50;;;;;;;;;;5038363;28;20430;-87
2022/06/22 10:08:12;;;;;;;0.80;0.57;;;;;;;;;;5054725;28;20444;-83
2022/06/22 10:10:46;;;;;;;0.87;0.70;;;;;;;;;;5055247;28;20455;-83
2022/06/22 10:13:28;;;;;;;1.00;0.90;;;;;;;;;;5056284;28;20408;-80
2022/06/22 10:16:11;;;;;;;0.80;0.60;;;;;;;;;;5053827;28;20466;-83
2022/06/22 10:18:52;;;;;;;0.90;0.50;;;;;;;;;;5070813;28;20931;-83
2022/06/22 10:21:24;;;;;;;2.10;0.90;;;;;;;;;;5065513;28;20469;-86
2022/06/22 10:24:09;;;;;;;0.90;0.70;;;;;;;;;;5069105;28;20450;-84
2022/06/22 10:26:43;;;;;;;0.80;0.60;;;;;;;;;;5062101;28;20451;-82
2022/06/22 10:29:21;;;;;;;0.90;0.60;;;;;;;;;;5068254;28;20446;-83
2022/06/22 10:31:58;;;;;;;0.80;0.60;;;;;;;;;;5067254;28;20432;-81
2022/06/22 10:34:32;;;;;;;0.80;0.60;;;;;;;;;;5065668;28;20478;-85
2022/06/22 10:37:16;;;;;;;0.80;0.50;;;;;;;;;;5066611;28;20459;-84
2022/06/22 10:39:55;;;;;;;1.33;0.80;;;;;;;;;;5027662;28;20819;-83
2022/06/22 10:45:24;;;;;;;0.90;0.50;;;;;;;;;;5082534;28;20474;-83
2022/06/22 10:48:09;;;;;;;0.80;0.50;;;;;;;;;;5056958;28;20970;-81
2022/06/22 10:50:40;;;;;;;1.10;0.77;;;;;;;;;;5053419;28;20412;-82
2022/06/22 10:53:25;;;;;;;0.90;0.80;;;;;;;;;;5036629;28;20451;-81
2022/06/22 10:55:55;;;;;;;1.13;1.03;;;;;;;;;;5040683;28;20436;-80
2022/06/22 10:58:42;;;;;;;1.17;0.80;;;;;;;;;;5053678;28;20435;-83
2022/06/22 11:01:30;;;;;;;1.00;0.80;;;;;;;;;;5054346;28;20478;-83
2022/06/22 11:04:21;;;;;;;0.90;0.70;;;;;;;;;;5049502;28;20497;-81
2022/06/22 11:07:11;;;;;;;0.90;0.50;;;;;;;;;;5037939;28;20490;-82
2022/06/22 11:09:44;;;;;;;0.90;0.50;;;;;;;;;;5053061;28;20524;-83
2022/06/22 11:12:19;;;;;;;1.00;0.70;;;;;;;;;;5054112;28;20416;-83
2022/06/22 11:14:58;;;;;;;1.00;0.77;;;;;;;;;;5036805;28;20963;-83
2022/06/22 11:17:47;;;;;;;1.63;0.70;;;;;;;;;;5053374;28;20466;-85
2022/06/22 11:20:24;;;;;;;0.90;0.60;;;;;;;;;;5052838;28;20196;-80
2022/06/22 11:22:54;;;;;;;0.90;0.70;;;;;;;;;;5056968;28;20450;-83
2022/06/22 11:31:36;;;;;;;0.90;0.70;;;;;;;;;;5070332;28;20434;-82
2022/06/22 11:34:14;;;;;;;1.00;0.70;;;;;;;;;;5053939;28;20819;-83
2022/06/22 11:36:45;;;;;;;0.90;0.70;;;;;;;;;;5060455;28;20875;-85
2022/06/22 11:39:47;;;;;;;0.90;0.60;;;;;;;;;;5057489;28;20458;-84
2022/06/22 11:42:18;;;;;;;0.93;0.63;;;;;;;;;;5071466;28;20474;-83
2022/06/22 11:47:52;;;;;;;0.80;0.57;;;;;;;;;;5073466;28;20435;-83
2022/06/22 11:50:23;;;;;;;0.90;0.60;;;;;;;;;;5068554;28;20966;-83
2022/06/22 11:53:04;;;;;;;0.90;0.60;;;;;;;;;;5060359;28;20541;-85
2022/06/22 11:55:35;;;;;;;0.90;0.63;;;;;;;;;;5068848;28;20553;-81
2022/06/22 11:58:20;;;;;;;0.90;0.60;;;;;;;;;;5054739;28;20447;-84
2022/06/22 12:00:56;;;;;;;0.87;0.53;;;;;;;;;;5080708;28;20497;-86
2022/06/22 12:03:42;;;;;;;1.40;0.70;;;;;;;;;;5072444;28;20502;-84
2022/06/22 12:06:20;;;;;;;0.80;0.50;;;;;;;;;;5053784;28;21046;-85
2022/06/22 12:09:05;;;;;;;0.90;0.60;;;;;;;;;;5040835;28;20471;-86
2022/06/22 12:11:40;;;;;;;0.90;0.50;;;;;;;;;;5051749;28;20932;-84
2022/06/22 12:17:07;;;;;;;0.90;0.50;;;;;;;;;;5053003;28;20407;-84
2022/06/22 12:19:39;;;;;;;0.80;0.50;;;;;;;;;;5062604;28;20491;-80
2022/06/22 12:22:20;;;;;;;0.90;0.63;;;;;;;;;;5052423;28;20561;-86
2022/06/22 12:25:21;;;;;;;1.20;0.60;;;;;;;;;;5051884;28;20442;-86
2022/06/22 12:27:53;;;;;;;1.00;0.67;;;;;;;;;;5051849;28;20426;-83
2022/06/22 12:30:34;;;;;;;0.90;0.60;;;;;;;;;;5058773;28;20526;-83
2022/06/22 12:33:03;;;;;;;0.80;0.50;;;;;;;;;;5034496;28;21126;-85
2022/06/22 12:35:36;;;;;;;1.00;0.70;;;;;;;;;;5034839;28;20427;-84
2022/06/22 12:38:06;;;;;;;1.20;0.80;;;;;;;;;;5069973;28;20525;-83
2022/06/22 12:40:43;;;;;;;0.90;0.60;;;;;;;;;;5069899;28;20470;-86
2022/06/22 12:43:22;;;;;;;1.27;0.60;;;;;;;;;;5068573;28;20522;-83
2022/06/22 12:45:52;;;;;;;0.90;0.60;;;;;;;;;;5067152;28;20439;-81
2022/06/22 12:48:30;;;;;;;0.93;0.60;;;;;;;;;;5070450;28;20415;-84
2022/06/22 12:51:13;;;;;;;0.90;0.60;;;;;;;;;;5053818;28;20303;-84
2022/06/22 12:53:42;;;;;;;0.90;0.60;;;;;;;;;;5056396;28;20962;-84
2022/06/22 12:56:12;;;;;;;0.90;0.50;;;;;;;;;;5051027;28;20532;-83
2022/06/22 12:58:44;;;;;;;0.90;0.50;;;;;;;;;;5051420;28;20424;-83
2022/06/22 13:01:11;;;;;;;3.33;0.97;;;;;;;;;;5066824;28;20211;-83
2022/06/22 13:03:41;;;;;;;0.90;0.60;;;;;;;;;;5071286;28;20184;-82
2022/06/22 13:06:09;;;;;;;0.93;0.63;;;;;;;;;;5059974;28;20467;-85
2022/06/22 13:08:39;;;;;;;1.63;1.17;;;;;;;;;;5041925;28;20932;-83
2022/06/22 13:11:13;;;;;;;0.90;0.50;;;;;;;;;;5044538;28;20189;-83
2022/06/22 13:13:45;;;;;;;0.90;0.50;;;;;;;;;;5050600;28;20287;-84
2022/06/22 13:16:13;;;;;;;1.00;0.70;;;;;;;;;;5066321;28;20200;-85
2022/06/22 13:18:42;;;;;;;0.90;0.50;;;;;;;;;;5074926;28;20275;-84
2022/06/22 13:21:13;;;;;;;1.13;0.80;;;;;;;;;;5058044;28;20330;-84
2022/06/22 13:23:45;;;;;;;0.90;0.50;;;;;;;;;;5072139;28;20231;-83
2022/06/22 13:26:17;;;;;;;2.00;1.20;;;;;;;;;;5046581;28;20224;-84
2022/06/22 13:28:51;;;;;;;1.48;1.23;;;;;;;;;;5038504;28;20207;-83
2022/06/22 13:31:20;;;;;;;0.90;0.50;;;;;;;;;;5052244;28;20254;-81
2022/06/22 13:33:52;;;;;;;1.08;0.70;;;;;;;;;;5056360;28;20259;-83
2022/06/22 13:36:30;;;;;;;0.90;0.60;;;;;;;;;;5054558;28;20213;-82
2022/06/22 13:39:02;;;;;;;0.90;0.60;;;;;;;;;;5040303;28;20708;-83
2022/06/22 13:41:42;;;;;;;1.10;0.80;;;;;;;;;;5063493;28;20216;-83
2022/06/22 13:44:27;;;;;;;0.90;0.60;;;;;;;;;;5055699;28;20188;-83
2022/06/22 13:47:06;;;;;;;0.90;0.60;;;;;;;;;;5055191;28;20217;-83
2022/06/22 13:49:41;;;;;;;1.00;0.70;;;;;;;;;;5056632;28;20200;-83
2022/06/22 13:52:19;;;;;;;0.90;0.60;;;;;;;;;;5056461;28;20616;-81
2022/06/22 13:54:55;;;;;;;0.90;0.60;;;;;;;;;;5055313;28;20181;-85
2022/06/22 13:57:31;;;;;;;0.90;0.60;;;;;;;;;;5055839;28;20702;-83
2022/06/22 14:00:03;;;;;;;1.00;0.60;;;;;;;;;;5062031;28;20195;-85
2022/06/22 14:02:42;;;;;;;0.90;0.60;;;;;;;;;;5075538;28;20218;-89
2022/06/22 14:05:15;;;;;;;0.90;0.60;;;;;;;;;;5073216;28;20696;-84
2022/06/22 14:07:45;;;;;;;1.00;0.70;;;;;;;;;;5037106;28;20220;-87
2022/06/22 14:10:19;;;;;;;1.00;0.80;;;;;;;;;;5039164;28;20447;-85
2022/06/22 14:13:13;;;;;;;1.00;0.60;;;;;;;;;;5041733;28;20432;-85
2022/06/22 14:15:44;;;;;;;1.00;0.70;;;;;;;;;;5059323;28;20530;-89
2022/06/22 14:18:15;;;;;;;0.90;0.60;;;;;;;;;;5074434;28;20923;-85
2022/06/22 14:20:44;;;;;;;0.97;0.63;;;;;;;;;;5058832;28;20203;-88
2022/06/22 14:23:17;;;;;;;0.90;0.60;;;;;;;;;;5069071;28;20220;-84
2022/06/22 14:25:49;;;;;;;0.90;0.50;;;;;;;;;;5052107;28;20454;-83
2022/06/22 14:28:20;;;;;;;1.00;0.60;;;;;;;;;;5038331;28;20479;-84
2022/06/22 14:30:56;;;;;;;0.90;0.80;;;;;;;;;;5053029;28;20439;-82
2022/06/22 14:33:44;;;;;;;1.10;0.70;;;;;;;;;;5056127;28;20446;-83
2022/06/22 14:36:19;;;;;;;1.30;0.90;;;;;;;;;;5070630;28;20842;-83
2022/06/22 14:38:51;;;;;;;1.20;0.80;;;;;;;;;;5074376;28;20562;-83
2022/06/22 14:41:20;;;;;;;1.00;0.60;;;;;;;;;;5058999;28;21035;-83
2022/06/22 14:43:50;;;;;;;1.00;0.70;;;;;;;;;;5074810;28;20434;-84
2022/06/22 14:46:30;;;;;;;0.90;0.50;;;;;;;;;;5058771;28;20443;-84
2022/06/22 14:49:02;;;;;;;0.93;0.57;;;;;;;;;;5074747;28;20434;-85
2022/06/22 14:51:36;;;;;;;1.00;0.80;;;;;;;;;;5050327;28;20513;-85
2022/06/22 14:54:11;;;;;;;1.00;0.70;;;;;;;;;;5062403;28;20455;-84
2022/06/22 14:56:41;;;;;;;0.90;0.60;;;;;;;;;;5043591;28;20615;-83
2022/06/22 14:59:13;;;;;;;0.90;0.50;;;;;;;;;;5055061;28;20593;-83
2022/06/22 15:01:45;;;;;;;1.00;0.80;;;;;;;;;;5065778;28;20231;-82
2022/06/22 15:04:16;;;;;;;0.90;0.50;;;;;;;;;;5054178;28;20234;-82
2022/06/22 15:06:51;;;;;;;0.90;0.50;;;;;;;;;;5056200;28;20839;-81
2022/06/22 15:09:21;;;;;;;0.90;0.50;;;;;;;;;;5038722;28;20185;-82
2022/06/22 15:14:41;;;;;;;0.90;0.67;;;;;;;;;;5074293;28;20193;-82
2022/06/22 15:17:13;;;;;;;0.90;0.60;;;;;;;;;;5074318;28;20645;-82
2022/06/22 15:19:45;;;;;;;1.00;0.70;;;;;;;;;;5076172;28;20438;-81
2022/06/22 15:22:15;;;;;;;0.90;0.60;;;;;;;;;;5061357;28;20497;-80
2022/06/22 15:25:08;;;;;;;0.90;0.60;;;;;;;;;;5074872;28;20449;-82
2022/06/22 15:27:38;;;;;;;0.90;0.60;;;;;;;;;;5072896;28;20435;-82
2022/06/22 15:30:19;;;;;;;0.90;0.50;;;;;;;;;;5073412;28;20424;-83
2022/06/22 15:32:56;;;;;;;0.90;0.70;;;;;;;;;;5054876;28;20203;-81
2022/06/22 15:35:24;;;;;;;0.90;0.57;;;;;;;;;;5063629;28;20200;-80
2022/06/22 15:37:57;;;;;;;0.90;0.60;;;;;;;;;;5052603;28;20665;-81
2022/06/22 15:40:27;;;;;;;0.90;0.63;;;;;;;;;;5052323;28;21007;-81
2022/06/22 15:43:20;;;;;;;1.00;0.70;;;;;;;;;;5039359;28;20466;-78
2022/06/22 15:45:50;;;;;;;0.90;0.60;;;;;;;;;;5067367;28;20654;-78
2022/06/22 15:48:28;;;;;;;1.10;0.80;;;;;;;;;;5053078;28;20471;-79
2022/06/22 15:51:05;;;;;;;0.90;0.50;;;;;;;;;;5052867;28;20455;-79
2022/06/22 15:53:42;;;;;;;0.90;0.63;;;;;;;;;;5054118;28;20439;-77
2022/06/22 15:56:29;;;;;;;1.00;0.70;;;;;;;;;;5036706;28;20434;-78
2022/06/22 15:58:58;;;;;;;0.90;0.57;;;;;;;;;;5036761;28;20439;-78
2022/06/22 16:01:27;;;;;;;0.90;0.63;;;;;;;;;;5057776;28;20446;-75
2022/06/22 16:03:57;;;;;;;1.17;0.80;;;;;;;;;;5053555;28;20520;-77
2022/06/22 16:06:27;;;;;;;1.00;0.73;;;;;;;;;;5052731;28;20830;-80
2022/06/22 16:08:57;;;;;;;0.90;0.60;;;;;;;;;;5052221;28;20874;-79
2022/06/22 16:14:14;;;;;;;0.90;0.60;;;;;;;;;;5056418;28;20850;-79
2022/06/22 16:16:47;;;;;;;1.03;0.70;;;;;;;;;;5056890;28;20454;-79
2022/06/22 16:19:18;;;;;;;0.80;0.60;;;;;;;;;;5069157;28;20950;-83
2022/06/22 16:21:49;;;;;;;62.20;53.93;;;;;;;;;;5062162;28;20455;-80
2022/06/22 16:24:19;;;;;;;28.73;19.97;;;;;;;;;;5056249;28;20447;-79
2022/06/22 16:26:50;;;;;;;9.83;8.03;;;;;;;;;;5052768;28;20814;-78
2022/06/22 16:29:20;;;;;;;6.80;6.30;;;;;;;;;;5043680;28;20459;-78
2022/06/22 16:31:49;;;;;;;1.87;1.77;;;;;;;;;;5072722;28;20419;-79
2022/06/22 16:34:21;;;;;;;0.87;0.73;;;;;;;;;;5068863;28;20436;-78
2022/06/22 16:36:51;;;;;;;0.80;0.60;;;;;;;;;;5069947;28;20463;-77
2022/06/22 16:39:30;;;;;;;0.80;0.60;;;;;;;;;;5058063;28;20493;-77
2022/06/22 16:42:02;;;;;;;1.83;0.93;;;;;;;;;;5052433;28;20435;-76
2022/06/22 16:44:53;;;;;;;0.80;0.57;;;;;;;;;;5038599;28;20502;-75
2022/06/22 16:47:21;;;;;;;3.03;2.50;;;;;;;;;;5052927;28;20464;-77
2022/06/22 16:49:50;;;;;;;0.80;0.60;;;;;;;;;;5052291;28;20996;-76
2022/06/22 16:52:20;;;;;;;0.80;0.70;;;;;;;;;;5036171;28;20494;-77
2022/06/22 16:54:49;;;;;;;0.80;0.60;;;;;;;;;;5052162;28;20482;-76
2022/06/22 16:57:17;;;;;;;0.80;0.60;;;;;;;;;;5052793;28;21048;-78
2022/06/22 16:59:50;;;;;;;0.80;0.63;;;;;;;;;;5053483;28;20502;-77
2022/06/22 17:02:32;;;;;;;2.30;1.57;;;;;;;;;;5051788;28;20432;-77
2022/06/22 17:05:08;;;;;;;0.70;0.50;;;;;;;;;;5035891;28;20420;-76
2022/06/22 17:07:39;;;;;;;0.80;0.70;;;;;;;;;;5068886;28;20455;-74
2022/06/22 17:10:09;;;;;;;0.80;0.60;;;;;;;;;;5072274;28;20465;-75
2022/06/22 17:12:38;;;;;;;0.70;0.60;;;;;;;;;;5055214;28;20801;-74
2022/06/22 17:15:11;;;;;;;1.33;1.23;;;;;;;;;;5058328;28;20457;-74
2022/06/22 17:17:43;;;;;;;0.80;0.70;;;;;;;;;;5052624;28;20424;-75
2022/06/22 17:20:14;;;;;;;0.93;0.70;;;;;;;;;;5052956;28;20411;-73
2022/06/22 17:22:45;;;;;;;0.80;0.70;;;;;;;;;;5052908;28;20468;-74
2022/06/22 17:25:18;;;;;;;0.80;0.70;;;;;;;;;;5064465;28;20439;-75
2022/06/22 17:27:49;;;;;;;0.80;0.70;;;;;;;;;;5054991;28;20957;-74
2022/06/22 17:30:19;;;;;;;0.80;0.70;;;;;;;;;;5062329;28;20444;-75
2022/06/22 17:32:53;;;;;;;0.77;0.60;;;;;;;;;;5057683;28;20424;-75
2022/06/22 17:35:29;;;;;;;0.77;0.60;;;;;;;;;;5067718;28;20439;-73
2022/06/22 17:38:05;;;;;;;0.70;0.60;;;;;;;;;;5072965;28;20438;-74
2022/06/22 17:40:49;;;;;;;0.70;0.60;;;;;;;;;;5071664;28;20446;-74
2022/06/22 17:43:19;;;;;;;0.80;0.80;;;;;;;;;;5071897;28;20463;-74
2022/06/22 17:46:00;;;;;;;0.80;0.70;;;;;;;;;;5039122;28;20459;-73
2022/06/22 17:48:29;;;;;;;1.10;1.00;;;;;;;;;;5055521;28;20430;-74
2022/06/22 17:50:58;;;;;;;0.80;0.70;;;;;;;;;;5070888;28;20494;-74
2022/06/22 17:53:27;;;;;;;0.70;0.60;;;;;;;;;;5071745;28;20861;-76
2022/06/22 17:55:57;;;;;;;0.80;0.80;;;;;;;;;;5072422;28;20832;-75
2022/06/22 17:58:28;;;;;;;0.73;0.60;;;;;;;;;;5073009;28;20457;-76
2022/06/22 18:00:56;;;;;;;0.70;0.60;;;;;;;;;;5059130;28;20913;-75
2022/06/22 18:03:27;;;;;;;0.80;0.70;;;;;;;;;;5055426;28;20468;-73
2022/06/22 18:05:58;;;;;;;0.80;0.70;;;;;;;;;;5051950;28;20462;-76
2022/06/22 18:08:33;;;;;;;0.83;0.77;;;;;;;;;;5075325;28;20482;-76
2022/06/22 18:11:03;;;;;;;0.70;0.70;;;;;;;;;;5074841;28;20512;-74
2022/06/22 18:13:31;;;;;;;0.77;0.67;;;;;;;;;;5075615;28;20452;-75
2022/06/22 18:15:58;;;;;;;0.80;0.60;;;;;;;;;;5053697;28;20448;-75
2022/06/22 18:18:28;;;;;;;0.80;0.70;;;;;;;;;;5056035;28;20443;-74
2022/06/22 18:20:56;;;;;;;0.80;0.77;;;;;;;;;;5055473;28;20533;-75
2022/06/22 18:23:25;;;;;;;0.80;0.60;;;;;;;;;;5054963;28;20858;-74
2022/06/22 18:25:59;;;;;;;0.80;0.80;;;;;;;;;;5056676;28;20432;-74
2022/06/22 18:28:30;;;;;;;0.70;0.60;;;;;;;;;;5055697;28;20770;-76
2022/06/22 18:31:02;;;;;;;0.80;0.70;;;;;;;;;;5066916;28;20470;-74
2022/06/22 18:33:31;;;;;;;0.70;0.60;;;;;;;;;;5054422;28;20456;-74
2022/06/22 18:36:00;;;;;;;0.80;0.70;;;;;;;;;;5039607;28;21014;-74
2022/06/22 18:44:08;;;;;;;0.80;0.70;;;;;;;;;;5070178;28;20496;-76
2022/06/22 18:46:37;;;;;;;0.70;0.60;;;;;;;;;;5038563;28;20767;-73
2022/06/22 18:49:08;;;;;;;0.70;0.60;;;;;;;;;;5055696;28;20428;-74
2022/06/22 18:51:38;;;;;;;1.03;0.93;;;;;;;;;;5054070;28;20435;-75
2022/06/22 18:54:11;;;;;;;0.80;0.70;;;;;;;;;;5054546;28;20428;-74
2022/06/22 18:56:45;;;;;;;0.70;0.60;;;;;;;;;;5054888;28;20487;-74
2022/06/22 18:59:24;;;;;;;0.80;0.60;;;;;;;;;;5055222;28;20437;-73
2022/06/22 19:01:53;;;;;;;0.80;0.70;;;;;;;;;;5054336;28;20402;-73
2022/06/22 19:04:23;;;;;;;0.80;0.70;;;;;;;;;;5054202;28;20564;-74
2022/06/22 19:06:58;;;;;;;0.80;0.70;;;;;;;;;;5057898;28;20452;-74
2022/06/22 19:09:32;;;;;;;0.80;0.80;;;;;;;;;;5054079;28;20485;-74
2022/06/22 19:12:02;;;;;;;0.80;0.67;;;;;;;;;;5053927;28;20842;-74
2022/06/22 19:14:31;;;;;;;1.10;0.83;;;;;;;;;;5053996;28;20440;-74
2022/06/22 19:17:00;;;;;;;0.80;0.70;;;;;;;;;;5055145;28;20925;-75
2022/06/22 19:19:33;;;;;;;0.80;0.70;;;;;;;;;;5053728;28;20498;-74
2022/06/22 19:22:08;;;;;;;0.80;0.60;;;;;;;;;;5056671;28;20455;-73
2022/06/22 19:24:43;;;;;;;0.80;0.70;;;;;;;;;;5056546;28;20451;-74
2022/06/22 19:27:13;;;;;;;0.80;0.70;;;;;;;;;;5062642;28;20906;-74
2022/06/22 19:29:41;;;;;;;0.90;0.80;;;;;;;;;;5060443;28;20443;-74
2022/06/22 19:32:22;;;;;;;0.80;0.70;;;;;;;;;;5073745;28;20520;-74
2022/06/22 19:34:58;;;;;;;0.80;0.80;;;;;;;;;;5074825;28;20808;-76
2022/06/22 19:37:31;;;;;;;0.80;0.80;;;;;;;;;;5073458;28;20479;-75
2022/06/22 19:40:01;;;;;;;0.80;0.60;;;;;;;;;;5055387;28;20493;-75
2022/06/22 19:42:35;;;;;;;0.80;0.80;;;;;;;;;;5036958;28;20439;-75
2022/06/22 19:45:08;;;;;;;0.80;0.70;;;;;;;;;;5053754;28;20462;-77
2022/06/22 19:47:58;;;;;;;0.80;0.70;;;;;;;;;;5060836;28;20440;-76
2022/06/22 19:50:32;;;;;;;0.70;0.60;;;;;;;;;;5061483;28;20792;-76
2022/06/22 19:53:05;;;;;;;0.80;0.70;;;;;;;;;;5054706;28;20449;-78
2022/06/22 19:55:35;;;;;;;0.80;0.70;;;;;;;;;;5054746;28;20436;-74
2022/06/22 19:58:04;;;;;;;0.80;0.70;;;;;;;;;;5064782;28;20869;-74
2022/06/22 20:00:32;;;;;;;0.80;0.70;;;;;;;;;;5047394;28;20455;-75
2022/06/22 20:03:08;;;;;;;0.80;0.70;;;;;;;;;;5075893;28;20419;-75
2022/06/22 20:05:48;;;;;;;0.80;0.73;;;;;;;;;;5073789;28;20808;-75
2022/06/22 20:08:19;;;;;;;0.80;0.73;;;;;;;;;;5075891;28;20420;-75
2022/06/22 20:10:51;;;;;;;0.80;0.70;;;;;;;;;;5066650;28;20466;-75
2022/06/22 20:13:23;;;;;;;0.80;0.80;;;;;;;;;;5055339;28;20432;-75
2022/06/22 20:15:56;;;;;;;0.80;0.70;;;;;;;;;;5052989;28;20411;-76
2022/06/22 20:18:25;;;;;;;0.80;0.60;;;;;;;;;;5055955;28;20435;-76
2022/06/22 20:21:02;;;;;;;0.87;0.80;;;;;;;;;;5062551;28;20552;-75
2022/06/22 20:23:37;;;;;;;0.80;0.60;;;;;;;;;;5073722;28;20451;-74
2022/06/22 20:26:22;;;;;;;0.80;0.60;;;;;;;;;;5064389;28;20436;-75
2022/06/22 20:28:55;;;;;;;0.80;0.67;;;;;;;;;;5054273;28;21000;-75
2022/06/22 20:31:27;;;;;;;0.80;0.80;;;;;;;;;;5066366;28;20543;-75
2022/06/22 20:34:01;;;;;;;0.80;0.70;;;;;;;;;;5056286;28;20443;-77
2022/06/22 20:36:36;;;;;;;0.80;0.67;;;;;;;;;;5052883;28;20551;-75
2022/06/22 20:39:03;;;;;;;0.80;0.70;;;;;;;;;;5052575;28;20442;-75
2022/06/22 20:44:24;;;;;;;0.80;0.67;;;;;;;;;;5060242;28;20861;-75
2022/06/22 20:46:54;;;;;;;1.27;1.17;;;;;;;;;;5055598;28;20717;-76
2022/06/22 20:49:22;;;;;;;0.80;0.70;;;;;;;;;;5035942;28;20455;-75
2022/06/22 20:51:53;;;;;;;0.80;0.80;;;;;;;;;;5053407;28;20444;-75
2022/06/22 20:54:23;;;;;;;0.80;0.70;;;;;;;;;;5052892;28;20468;-74
2022/06/22 20:56:57;;;;;;;0.80;0.80;;;;;;;;;;5055174;28;20462;-75
2022/06/22 20:59:27;;;;;;;0.83;0.73;;;;;;;;;;5054012;28;20449;-76
2022/06/22 21:01:56;;;;;;;0.70;0.60;;;;;;;;;;5072381;28;20514;-75
2022/06/22 21:04:28;;;;;;;0.80;0.70;;;;;;;;;;5074230;28;20859;-75
2022/06/22 21:06:57;;;;;;;0.77;0.70;;;;;;;;;;5072171;28;20463;-75
2022/06/22 21:09:37;;;;;;;0.87;0.87;;;;;;;;;;5054971;28;20436;-76
2022/06/22 21:12:19;;;;;;;0.70;0.67;;;;;;;;;;5071715;28;20437;-75
2022/06/22 21:15:10;;;;;;;0.80;0.80;;;;;;;;;;5062421;28;20469;-75
2022/06/22 21:17:40;;;;;;;0.83;0.70;;;;;;;;;;5052007;28;20441;-75
2022/06/22 21:20:10;;;;;;;0.70;0.60;;;;;;;;;;5059789;28;20444;-75
2022/06/22 21:22:38;;;;;;;0.70;0.60;;;;;;;;;;5072876;28;20609;-75
2022/06/22 21:25:21;;;;;;;0.80;0.70;;;;;;;;;;5058433;28;20480;-77
2022/06/22 21:28:01;;;;;;;0.73;0.67;;;;;;;;;;5054245;28;20442;-76
2022/06/22 21:30:30;;;;;;;0.80;0.70;;;;;;;;;;5051941;28;20421;-75
2022/06/22 21:33:14;;;;;;;0.80;0.70;;;;;;;;;;5051719;28;20444;-75
2022/06/22 21:35:46;;;;;;;0.77;0.70;;;;;;;;;;5053089;28;20481;-76
2022/06/22 21:38:17;;;;;;;0.80;0.70;;;;;;;;;;5054046;28;20453;-75
2022/06/22 21:40:46;;;;;;;0.80;0.70;;;;;;;;;;5076973;28;20805;-76
2022/06/22 21:43:27;;;;;;;0.80;0.77;;;;;;;;;;5069294;28;20497;-76
2022/06/22 21:46:02;;;;;;;0.80;0.70;;;;;;;;;;5073277;28;20942;-76
2022/06/22 21:48:39;;;;;;;0.80;0.70;;;;;;;;;;5075738;28;20422;-75
2022/06/22 21:51:18;;;;;;;0.83;0.83;;;;;;;;;;5076261;28;21442;-75
2022/06/22 21:53:50;;;;;;;0.77;0.70;;;;;;;;;;5074213;28;20404;-75
2022/06/22 21:56:43;;;;;;;0.80;0.70;;;;;;;;;;5055462;28;20457;-76
2022/06/22 21:59:15;;;;;;;0.80;0.70;;;;;;;;;;5055091;28;20423;-75
2022/06/22 22:01:46;;;;;;;0.80;0.70;;;;;;;;;;5055927;28;20868;-75
2022/06/22 22:04:18;;;;;;;0.80;0.70;;;;;;;;;;5060338;28;20484;-75
2022/06/22 22:06:51;;;;;;;0.73;0.60;;;;;;;;;;5066029;28;20822;-76
2022/06/22 22:09:21;;;;;;;0.80;0.70;;;;;;;;;;5055183;28;20412;-76
2022/06/22 22:11:50;;;;;;;0.80;0.70;;;;;;;;;;5050715;28;20442;-76
2022/06/22 22:14:22;;;;;;;0.97;0.90;;;;;;;;;;5053783;28;20491;-76
2022/06/22 22:16:54;;;;;;;0.80;0.70;;;;;;;;;;5070728;28;20464;-76
2022/06/22 22:19:24;;;;;;;0.70;0.60;;;;;;;;;;5075996;28;20411;-76